sensor_id;sensor_type;location;lat;lon;timestamp;pressure;altitude;pressure_sealevel;temperature
65569;BMP180;52211;50.154;8.682;2022-12-18T00:00:30;101411.00;;;0.10
65569;BMP180;52211;50.154;8.682;2022-12-18T00:02:57;101397.00;;;0.10
65569;BMP180;52211;50.154;8.682;2022-12-18T00:05:27;101394.00;;;0.10
65569;BMP180;52211;50.154;8.682;2022-12-18T00:07:56;101402.00;;;0.10
65569;BMP180;52211;50.154;8.682;2022-12-18T00:10:22;101403.00;;;0.10
65569;BMP180;52211;50.154;8.682;2022-12-18T00:12:51;101400.00;;;0.10
65569;BMP180;52211;50.154;8.682;2022-12-18T00:15:21;101402.00;;;0.10
65569;BMP180;52211;50.154;8.682;2022-12-18T00:17:52;101399.00;;;0.00
65569;BMP180;52211;50.154;8.682;2022-12-18T00:20:19;101400.00;;;-0.10
65569;BMP180;52211;50.154;8.682;2022-12-18T00:22:55;101401.00;;;-0.10
65569;BMP180;52211;50.154;8.682;2022-12-18T00:25:26;101406.00;;;-0.20
65569;BMP180;52211;50.154;8.682;2022-12-18T00:27:53;101405.00;;;-0.20
65569;BMP180;52211;50.154;8.682;2022-12-18T00:30:20;101403.00;;;-0.20
65569;BMP180;52211;50.154;8.682;2022-12-18T00:32:47;101396.00;;;-0.20
65569;BMP180;52211;50.154;8.682;2022-12-18T00:35:14;101400.00;;;-0.40
65569;BMP180;52211;50.154;8.682;2022-12-18T00:37:41;101392.00;;;-0.50
65569;BMP180;52211;50.154;8.682;2022-12-18T00:40:12;101408.00;;;-0.70
65569;BMP180;52211;50.154;8.682;2022-12-18T00:42:42;101401.00;;;-0.70
65569;BMP180;52211;50.154;8.682;2022-12-18T00:45:30;101393.00;;;-0.80
65569;BMP180;52211;50.154;8.682;2022-12-18T00:48:02;101398.00;;;-0.80
65569;BMP180;52211;50.154;8.682;2022-12-18T00:50:30;101397.00;;;-0.90
65569;BMP180;52211;50.154;8.682;2022-12-18T00:53:02;101401.00;;;-1.00
65569;BMP180;52211;50.154;8.682;2022-12-18T00:55:40;101410.00;;;-1.10
65569;BMP180;52211;50.154;8.682;2022-12-18T00:58:14;101405.00;;;-1.10
65569;BMP180;52211;50.154;8.682;2022-12-18T01:00:44;101406.00;;;-1.10
65569;BMP180;52211;50.154;8.682;2022-12-18T01:03:14;101407.00;;;-1.10
65569;BMP180;52211;50.154;8.682;2022-12-18T01:05:43;101404.00;;;-1.10
65569;BMP180;52211;50.154;8.682;2022-12-18T01:08:10;101408.00;;;-1.10
65569;BMP180;52211;50.154;8.682;2022-12-18T01:10:43;101425.00;;;-1.10
65569;BMP180;52211;50.154;8.682;2022-12-18T01:13:15;101420.00;;;-1.10
65569;BMP180;52211;50.154;8.682;2022-12-18T01:15:49;101406.00;;;-1.10
65569;BMP180;52211;50.154;8.682;2022-12-18T01:18:18;101414.00;;;-1.10
65569;BMP180;52211;50.154;8.682;2022-12-18T01:20:48;101415.00;;;-1.10
65569;BMP180;52211;50.154;8.682;2022-12-18T01:23:19;101413.00;;;-1.00
65569;BMP180;52211;50.154;8.682;2022-12-18T01:25:49;101427.00;;;-1.00
65569;BMP180;52211;50.154;8.682;2022-12-18T01:28:19;101434.00;;;-1.00
65569;BMP180;52211;50.154;8.682;2022-12-18T01:30:48;101426.00;;;-1.00
65569;BMP180;52211;50.154;8.682;2022-12-18T01:33:22;101438.00;;;-0.90
65569;BMP180;52211;50.154;8.682;2022-12-18T01:35:49;101432.00;;;-0.90
65569;BMP180;52211;50.154;8.682;2022-12-18T01:38:19;101433.00;;;-0.90
65569;BMP180;52211;50.154;8.682;2022-12-18T01:40:46;101448.00;;;-0.80
65569;BMP180;52211;50.154;8.682;2022-12-18T01:43:13;101450.00;;;-0.80
65569;BMP180;52211;50.154;8.682;2022-12-18T01:45:44;101454.00;;;-0.80
65569;BMP180;52211;50.154;8.682;2022-12-18T01:48:12;101432.00;;;-0.70
65569;BMP180;52211;50.154;8.682;2022-12-18T01:50:45;101439.00;;;-0.70
65569;BMP180;52211;50.154;8.682;2022-12-18T01:53:17;101433.00;;;-0.60
65569;BMP180;52211;50.154;8.682;2022-12-18T01:55:57;101417.00;;;-0.60
65569;BMP180;52211;50.154;8.682;2022-12-18T01:58:52;101428.00;;;-0.60
65569;BMP180;52211;50.154;8.682;2022-12-18T02:01:23;101426.00;;;-0.60
65569;BMP180;52211;50.154;8.682;2022-12-18T02:03:53;101428.00;;;-0.50
65569;BMP180;52211;50.154;8.682;2022-12-18T02:07:17;101434.00;;;-0.50
65569;BMP180;52211;50.154;8.682;2022-12-18T02:10:06;101429.00;;;-0.50
65569;BMP180;52211;50.154;8.682;2022-12-18T02:13:07;101414.00;;;-0.50
65569;BMP180;52211;50.154;8.682;2022-12-18T02:18:21;101407.00;;;-0.40
65569;BMP180;52211;50.154;8.682;2022-12-18T02:26:50;101427.00;;;-0.30
65569;BMP180;52211;50.154;8.682;2022-12-18T02:29:30;101415.00;;;-0.30
65569;BMP180;52211;50.154;8.682;2022-12-18T02:32:05;101413.00;;;-0.30
65569;BMP180;52211;50.154;8.682;2022-12-18T02:34:38;101397.00;;;-0.30
65569;BMP180;52211;50.154;8.682;2022-12-18T02:37:12;101400.00;;;-0.30
65569;BMP180;52211;50.154;8.682;2022-12-18T02:39:51;101406.00;;;-0.30
65569;BMP180;52211;50.154;8.682;2022-12-18T02:42:24;101413.00;;;-0.30
65569;BMP180;52211;50.154;8.682;2022-12-18T02:44:55;101416.00;;;-0.30
65569;BMP180;52211;50.154;8.682;2022-12-18T02:47:30;101414.00;;;-0.30
65569;BMP180;52211;50.154;8.682;2022-12-18T02:50:02;101421.00;;;-0.30
65569;BMP180;52211;50.154;8.682;2022-12-18T02:53:17;101420.00;;;-0.30
65569;BMP180;52211;50.154;8.682;2022-12-18T03:04:25;101411.00;;;-0.40
65569;BMP180;52211;50.154;8.682;2022-12-18T03:06:58;101402.00;;;-0.30
65569;BMP180;52211;50.154;8.682;2022-12-18T03:09:42;101425.00;;;-0.40
65569;BMP180;52211;50.154;8.682;2022-12-18T03:12:19;101426.00;;;-0.40
65569;BMP180;52211;50.154;8.682;2022-12-18T03:17:34;101413.00;;;-0.40
65569;BMP180;52211;50.154;8.682;2022-12-18T03:20:14;101413.00;;;-0.50
65569;BMP180;52211;50.154;8.682;2022-12-18T03:22:49;101418.00;;;-0.50
65569;BMP180;52211;50.154;8.682;2022-12-18T03:25:18;101416.00;;;-0.60
65569;BMP180;52211;50.154;8.682;2022-12-18T03:27:51;101409.00;;;-0.60
65569;BMP180;52211;50.154;8.682;2022-12-18T03:30:22;101408.00;;;-0.60
65569;BMP180;52211;50.154;8.682;2022-12-18T03:33:06;101402.00;;;-0.70
65569;BMP180;52211;50.154;8.682;2022-12-18T03:35:44;101404.00;;;-0.70
65569;BMP180;52211;50.154;8.682;2022-12-18T03:38:16;101411.00;;;-0.70
65569;BMP180;52211;50.154;8.682;2022-12-18T03:44:35;101416.00;;;-0.90
65569;BMP180;52211;50.154;8.682;2022-12-18T03:47:53;101412.00;;;-0.90
65569;BMP180;52211;50.154;8.682;2022-12-18T03:50:59;101408.00;;;-1.00
65569;BMP180;52211;50.154;8.682;2022-12-18T03:56:04;101412.00;;;-1.10
65569;BMP180;52211;50.154;8.682;2022-12-18T03:58:39;101403.00;;;-1.10
65569;BMP180;52211;50.154;8.682;2022-12-18T04:01:19;101408.00;;;-1.20
65569;BMP180;52211;50.154;8.682;2022-12-18T04:03:49;101416.00;;;-1.20
65569;BMP180;52211;50.154;8.682;2022-12-18T04:06:20;101413.00;;;-1.20
65569;BMP180;52211;50.154;8.682;2022-12-18T04:08:48;101412.00;;;-1.20
65569;BMP180;52211;50.154;8.682;2022-12-18T04:11:19;101415.00;;;-1.30
65569;BMP180;52211;50.154;8.682;2022-12-18T04:13:49;101411.00;;;-1.30
65569;BMP180;52211;50.154;8.682;2022-12-18T04:16:27;101412.00;;;-1.30
65569;BMP180;52211;50.154;8.682;2022-12-18T04:19:01;101404.00;;;-1.40
65569;BMP180;52211;50.154;8.682;2022-12-18T04:21:35;101399.00;;;-1.40
65569;BMP180;52211;50.154;8.682;2022-12-18T04:24:07;101398.00;;;-1.50
65569;BMP180;52211;50.154;8.682;2022-12-18T04:26:42;101413.00;;;-1.50
65569;BMP180;52211;50.154;8.682;2022-12-18T04:29:16;101406.00;;;-1.60
65569;BMP180;52211;50.154;8.682;2022-12-18T04:31:45;101407.00;;;-1.60
65569;BMP180;52211;50.154;8.682;2022-12-18T04:34:13;101403.00;;;-1.60
65569;BMP180;52211;50.154;8.682;2022-12-18T04:36:47;101414.00;;;-1.60
65569;BMP180;52211;50.154;8.682;2022-12-18T04:39:18;101415.00;;;-1.60
65569;BMP180;52211;50.154;8.682;2022-12-18T04:41:47;101404.00;;;-1.60
65569;BMP180;52211;50.154;8.682;2022-12-18T04:44:19;101403.00;;;-1.60
65569;BMP180;52211;50.154;8.682;2022-12-18T04:46:46;101394.00;;;-1.60
65569;BMP180;52211;50.154;8.682;2022-12-18T04:49:13;101390.00;;;-1.70
65569;BMP180;52211;50.154;8.682;2022-12-18T04:51:40;101396.00;;;-1.70
65569;BMP180;52211;50.154;8.682;2022-12-18T04:54:11;101400.00;;;-1.70
65569;BMP180;52211;50.154;8.682;2022-12-18T04:56:40;101406.00;;;-1.70
65569;BMP180;52211;50.154;8.682;2022-12-18T04:59:10;101400.00;;;-1.70
65569;BMP180;52211;50.154;8.682;2022-12-18T05:01:41;101389.00;;;-1.80
65569;BMP180;52211;50.154;8.682;2022-12-18T05:04:10;101397.00;;;-1.80
65569;BMP180;52211;50.154;8.682;2022-12-18T05:06:42;101394.00;;;-1.80
65569;BMP180;52211;50.154;8.682;2022-12-18T05:09:08;101398.00;;;-1.90
65569;BMP180;52211;50.154;8.682;2022-12-18T05:11:35;101397.00;;;-1.90
65569;BMP180;52211;50.154;8.682;2022-12-18T05:14:02;101412.00;;;-2.00
65569;BMP180;52211;50.154;8.682;2022-12-18T05:16:34;101415.00;;;-2.00
65569;BMP180;52211;50.154;8.682;2022-12-18T05:19:05;101429.00;;;-2.00
65569;BMP180;52211;50.154;8.682;2022-12-18T05:21:37;101426.00;;;-2.00
65569;BMP180;52211;50.154;8.682;2022-12-18T05:24:06;101420.00;;;-2.00
65569;BMP180;52211;50.154;8.682;2022-12-18T05:26:34;101423.00;;;-2.00
65569;BMP180;52211;50.154;8.682;2022-12-18T05:29:01;101408.00;;;-2.00
65569;BMP180;52211;50.154;8.682;2022-12-18T05:31:30;101417.00;;;-2.00
65569;BMP180;52211;50.154;8.682;2022-12-18T05:34:06;101425.00;;;-2.00
65569;BMP180;52211;50.154;8.682;2022-12-18T05:36:33;101423.00;;;-2.00
65569;BMP180;52211;50.154;8.682;2022-12-18T05:39:04;101414.00;;;-2.00
65569;BMP180;52211;50.154;8.682;2022-12-18T05:41:36;101413.00;;;-2.00
65569;BMP180;52211;50.154;8.682;2022-12-18T05:44:06;101413.00;;;-2.00
65569;BMP180;52211;50.154;8.682;2022-12-18T05:46:36;101404.00;;;-2.00
65569;BMP180;52211;50.154;8.682;2022-12-18T05:49:11;101403.00;;;-2.00
65569;BMP180;52211;50.154;8.682;2022-12-18T05:51:38;101401.00;;;-2.00
65569;BMP180;52211;50.154;8.682;2022-12-18T05:54:05;101410.00;;;-2.00
65569;BMP180;52211;50.154;8.682;2022-12-18T05:56:34;101408.00;;;-2.00
65569;BMP180;52211;50.154;8.682;2022-12-18T05:59:01;101409.00;;;-2.10
65569;BMP180;52211;50.154;8.682;2022-12-18T06:01:31;101410.00;;;-2.10
65569;BMP180;52211;50.154;8.682;2022-12-18T06:04:02;101411.00;;;-2.10
65569;BMP180;52211;50.154;8.682;2022-12-18T06:06:32;101413.00;;;-2.10
65569;BMP180;52211;50.154;8.682;2022-12-18T06:09:01;101418.00;;;-2.10
65569;BMP180;52211;50.154;8.682;2022-12-18T06:11:30;101419.00;;;-2.10
65569;BMP180;52211;50.154;8.682;2022-12-18T06:14:03;101421.00;;;-2.10
65569;BMP180;52211;50.154;8.682;2022-12-18T06:16:31;101429.00;;;-2.00
65569;BMP180;52211;50.154;8.682;2022-12-18T06:19:03;101423.00;;;-2.10
65569;BMP180;52211;50.154;8.682;2022-12-18T06:21:34;101427.00;;;-2.10
65569;BMP180;52211;50.154;8.682;2022-12-18T06:24:02;101429.00;;;-2.10
65569;BMP180;52211;50.154;8.682;2022-12-18T06:26:32;101426.00;;;-2.10
65569;BMP180;52211;50.154;8.682;2022-12-18T06:29:03;101429.00;;;-2.10
65569;BMP180;52211;50.154;8.682;2022-12-18T06:31:32;101430.00;;;-2.20
65569;BMP180;52211;50.154;8.682;2022-12-18T06:34:03;101432.00;;;-2.20
65569;BMP180;52211;50.154;8.682;2022-12-18T06:36:32;101438.00;;;-2.20
65569;BMP180;52211;50.154;8.682;2022-12-18T06:38:59;101442.00;;;-2.20
65569;BMP180;52211;50.154;8.682;2022-12-18T06:41:26;101451.00;;;-2.20
65569;BMP180;52211;50.154;8.682;2022-12-18T06:43:59;101445.00;;;-2.30
65569;BMP180;52211;50.154;8.682;2022-12-18T06:46:28;101445.00;;;-2.30
65569;BMP180;52211;50.154;8.682;2022-12-18T06:49:00;101448.00;;;-2.20
65569;BMP180;52211;50.154;8.682;2022-12-18T06:51:27;101452.00;;;-2.20
65569;BMP180;52211;50.154;8.682;2022-12-18T06:53:56;101445.00;;;-2.30
65569;BMP180;52211;50.154;8.682;2022-12-18T06:56:27;101442.00;;;-2.30
65569;BMP180;52211;50.154;8.682;2022-12-18T06:58:56;101456.00;;;-2.30
65569;BMP180;52211;50.154;8.682;2022-12-18T07:01:23;101469.00;;;-2.30
65569;BMP180;52211;50.154;8.682;2022-12-18T07:03:55;101454.00;;;-2.30
65569;BMP180;52211;50.154;8.682;2022-12-18T07:06:25;101457.00;;;-2.40
65569;BMP180;52211;50.154;8.682;2022-12-18T07:08:55;101457.00;;;-2.40
65569;BMP180;52211;50.154;8.682;2022-12-18T07:11:22;101470.00;;;-2.40
65569;BMP180;52211;50.154;8.682;2022-12-18T07:13:50;101475.00;;;-2.40
65569;BMP180;52211;50.154;8.682;2022-12-18T07:16:21;101488.00;;;-2.40
65569;BMP180;52211;50.154;8.682;2022-12-18T07:18:54;101482.00;;;-2.40
65569;BMP180;52211;50.154;8.682;2022-12-18T07:21:22;101477.00;;;-2.40
65569;BMP180;52211;50.154;8.682;2022-12-18T07:23:50;101471.00;;;-2.50
65569;BMP180;52211;50.154;8.682;2022-12-18T07:26:21;101480.00;;;-2.50
65569;BMP180;52211;50.154;8.682;2022-12-18T07:28:55;101467.00;;;-2.50
65569;BMP180;52211;50.154;8.682;2022-12-18T07:31:29;101467.00;;;-2.50
65569;BMP180;52211;50.154;8.682;2022-12-18T07:33:59;101469.00;;;-2.50
65569;BMP180;52211;50.154;8.682;2022-12-18T07:36:28;101456.00;;;-2.50
65569;BMP180;52211;50.154;8.682;2022-12-18T07:38:57;101453.00;;;-2.50
65569;BMP180;52211;50.154;8.682;2022-12-18T07:41:26;101463.00;;;-2.50
65569;BMP180;52211;50.154;8.682;2022-12-18T07:43:53;101473.00;;;-2.50
65569;BMP180;52211;50.154;8.682;2022-12-18T07:46:20;101471.00;;;-2.50
65569;BMP180;52211;50.154;8.682;2022-12-18T07:48:49;101471.00;;;-2.50
65569;BMP180;52211;50.154;8.682;2022-12-18T07:51:18;101465.00;;;-2.50
65569;BMP180;52211;50.154;8.682;2022-12-18T07:53:46;101466.00;;;-2.40
65569;BMP180;52211;50.154;8.682;2022-12-18T07:56:18;101472.00;;;-2.40
65569;BMP180;52211;50.154;8.682;2022-12-18T07:58:56;101469.00;;;-2.40
65569;BMP180;52211;50.154;8.682;2022-12-18T08:01:26;101475.00;;;-2.40
65569;BMP180;52211;50.154;8.682;2022-12-18T08:04:00;101474.00;;;-2.40
65569;BMP180;52211;50.154;8.682;2022-12-18T08:06:31;101472.00;;;-2.30
65569;BMP180;52211;50.154;8.682;2022-12-18T08:08:58;101475.00;;;-2.30
65569;BMP180;52211;50.154;8.682;2022-12-18T08:11:27;101468.00;;;-2.20
65569;BMP180;52211;50.154;8.682;2022-12-18T08:14:00;101473.00;;;-2.20
65569;BMP180;52211;50.154;8.682;2022-12-18T08:16:27;101468.00;;;-2.20
65569;BMP180;52211;50.154;8.682;2022-12-18T08:18:54;101466.00;;;-2.10
65569;BMP180;52211;50.154;8.682;2022-12-18T08:21:28;101477.00;;;-2.10
65569;BMP180;52211;50.154;8.682;2022-12-18T08:24:02;101460.00;;;-2.10
65569;BMP180;52211;50.154;8.682;2022-12-18T08:26:30;101475.00;;;-2.00
65569;BMP180;52211;50.154;8.682;2022-12-18T08:28:59;101480.00;;;-2.00
65569;BMP180;52211;50.154;8.682;2022-12-18T08:31:31;101475.00;;;-1.90
65569;BMP180;52211;50.154;8.682;2022-12-18T08:34:04;101475.00;;;-1.90
65569;BMP180;52211;50.154;8.682;2022-12-18T08:36:34;101475.00;;;-1.90
65569;BMP180;52211;50.154;8.682;2022-12-18T08:39:06;101468.00;;;-1.80
65569;BMP180;52211;50.154;8.682;2022-12-18T08:41:33;101458.00;;;-1.80
65569;BMP180;52211;50.154;8.682;2022-12-18T08:44:00;101463.00;;;-1.80
65569;BMP180;52211;50.154;8.682;2022-12-18T08:46:45;101457.00;;;-1.70
65569;BMP180;52211;50.154;8.682;2022-12-18T08:49:12;101450.00;;;-1.70
65569;BMP180;52211;50.154;8.682;2022-12-18T08:51:40;101448.00;;;-1.70
65569;BMP180;52211;50.154;8.682;2022-12-18T08:54:13;101438.00;;;-1.60
65569;BMP180;52211;50.154;8.682;2022-12-18T08:56:42;101433.00;;;-1.60
65569;BMP180;52211;50.154;8.682;2022-12-18T08:59:16;101434.00;;;-1.50
65569;BMP180;52211;50.154;8.682;2022-12-18T09:01:47;101432.00;;;-1.50
65569;BMP180;52211;50.154;8.682;2022-12-18T09:04:17;101441.00;;;-1.50
65569;BMP180;52211;50.154;8.682;2022-12-18T09:06:46;101436.00;;;-1.40
65569;BMP180;52211;50.154;8.682;2022-12-18T09:09:13;101447.00;;;-1.30
65569;BMP180;52211;50.154;8.682;2022-12-18T09:11:42;101438.00;;;-1.30
65569;BMP180;52211;50.154;8.682;2022-12-18T09:14:16;101447.00;;;-1.30
65569;BMP180;52211;50.154;8.682;2022-12-18T09:16:44;101461.00;;;-1.20
65569;BMP180;52211;50.154;8.682;2022-12-18T09:19:13;101458.00;;;-1.10
65569;BMP180;52211;50.154;8.682;2022-12-18T09:21:40;101464.00;;;-1.10
65569;BMP180;52211;50.154;8.682;2022-12-18T09:24:14;101463.00;;;-1.00
65569;BMP180;52211;50.154;8.682;2022-12-18T09:26:42;101473.00;;;-1.00
65569;BMP180;52211;50.154;8.682;2022-12-18T09:29:15;101452.00;;;-0.90
65569;BMP180;52211;50.154;8.682;2022-12-18T09:31:45;101463.00;;;-0.90
65569;BMP180;52211;50.154;8.682;2022-12-18T09:34:17;101466.00;;;-0.80
65569;BMP180;52211;50.154;8.682;2022-12-18T09:36:53;101467.00;;;-0.70
65569;BMP180;52211;50.154;8.682;2022-12-18T09:39:27;101458.00;;;-0.70
65569;BMP180;52211;50.154;8.682;2022-12-18T09:42:01;101459.00;;;-0.60
65569;BMP180;52211;50.154;8.682;2022-12-18T09:44:36;101456.00;;;-0.50
65569;BMP180;52211;50.154;8.682;2022-12-18T09:47:38;101462.00;;;-0.50
65569;BMP180;52211;50.154;8.682;2022-12-18T09:50:31;101456.00;;;-0.40
65569;BMP180;52211;50.154;8.682;2022-12-18T09:53:17;101469.00;;;-0.30
65569;BMP180;52211;50.154;8.682;2022-12-18T09:55:50;101469.00;;;-0.20
65569;BMP180;52211;50.154;8.682;2022-12-18T09:58:41;101463.00;;;-0.10
65569;BMP180;52211;50.154;8.682;2022-12-18T10:01:18;101457.00;;;0.10
65569;BMP180;52211;50.154;8.682;2022-12-18T10:03:47;101455.00;;;0.20
65569;BMP180;52211;50.154;8.682;2022-12-18T10:09:38;101468.00;;;0.40
65569;BMP180;52211;50.154;8.682;2022-12-18T10:21:13;101457.00;;;0.70
65569;BMP180;52211;50.154;8.682;2022-12-18T10:27:18;101453.00;;;0.90
65569;BMP180;52211;50.154;8.682;2022-12-18T10:29:49;101449.00;;;1.00
65569;BMP180;52211;50.154;8.682;2022-12-18T10:32:21;101436.00;;;1.10
65569;BMP180;52211;50.154;8.682;2022-12-18T10:34:56;101439.00;;;1.20
65569;BMP180;52211;50.154;8.682;2022-12-18T10:37:29;101435.00;;;1.40
65569;BMP180;52211;50.154;8.682;2022-12-18T10:40:16;101435.00;;;1.50
65569;BMP180;52211;50.154;8.682;2022-12-18T10:43:04;101449.00;;;1.60
65569;BMP180;52211;50.154;8.682;2022-12-18T10:45:32;101443.00;;;1.70
65569;BMP180;52211;50.154;8.682;2022-12-18T10:48:01;101450.00;;;1.80
65569;BMP180;52211;50.154;8.682;2022-12-18T10:50:37;101445.00;;;1.90
65569;BMP180;52211;50.154;8.682;2022-12-18T10:53:29;101439.00;;;2.00
65569;BMP180;52211;50.154;8.682;2022-12-18T10:55:59;101456.00;;;2.10
65569;BMP180;52211;50.154;8.682;2022-12-18T10:58:35;101451.00;;;2.10
65569;BMP180;52211;50.154;8.682;2022-12-18T11:04:01;101430.00;;;2.30
65569;BMP180;52211;50.154;8.682;2022-12-18T11:06:31;101436.00;;;2.40
65569;BMP180;52211;50.154;8.682;2022-12-18T11:09:21;101442.00;;;2.50
65569;BMP180;52211;50.154;8.682;2022-12-18T11:12:01;101436.00;;;2.50
65569;BMP180;52211;50.154;8.682;2022-12-18T11:14:45;101434.00;;;2.50
65569;BMP180;52211;50.154;8.682;2022-12-18T11:17:35;101428.00;;;2.60
65569;BMP180;52211;50.154;8.682;2022-12-18T11:23:00;101428.00;;;2.70
65569;BMP180;52211;50.154;8.682;2022-12-18T11:25:34;101434.00;;;2.80
65569;BMP180;52211;50.154;8.682;2022-12-18T11:30:37;101429.00;;;2.90
65569;BMP180;52211;50.154;8.682;2022-12-18T11:36:00;101420.00;;;2.90
65569;BMP180;52211;50.154;8.682;2022-12-18T11:38:39;101410.00;;;3.00
65569;BMP180;52211;50.154;8.682;2022-12-18T11:41:34;101410.00;;;3.00
65569;BMP180;52211;50.154;8.682;2022-12-18T11:44:36;101409.00;;;3.00
65569;BMP180;52211;50.154;8.682;2022-12-18T11:49:52;101419.00;;;3.10
65569;BMP180;52211;50.154;8.682;2022-12-18T11:52:33;101406.00;;;3.10
65569;BMP180;52211;50.154;8.682;2022-12-18T11:55:12;101412.00;;;3.20
65569;BMP180;52211;50.154;8.682;2022-12-18T12:00:43;101407.00;;;3.30
65569;BMP180;52211;50.154;8.682;2022-12-18T12:03:39;101402.00;;;3.30
65569;BMP180;52211;50.154;8.682;2022-12-18T12:09:34;101401.00;;;3.40
65569;BMP180;52211;50.154;8.682;2022-12-18T12:21:42;101409.00;;;3.60
65569;BMP180;52211;50.154;8.682;2022-12-18T12:24:49;101398.00;;;3.60
65569;BMP180;52211;50.154;8.682;2022-12-18T12:30:09;101411.00;;;3.60
65569;BMP180;52211;50.154;8.682;2022-12-18T12:36:20;101410.00;;;3.50
65569;BMP180;52211;50.154;8.682;2022-12-18T12:38:59;101401.00;;;3.60
65569;BMP180;52211;50.154;8.682;2022-12-18T12:41:33;101380.00;;;3.60
65569;BMP180;52211;50.154;8.682;2022-12-18T12:44:32;101380.00;;;3.60
65569;BMP180;52211;50.154;8.682;2022-12-18T12:47:20;101380.00;;;3.60
65569;BMP180;52211;50.154;8.682;2022-12-18T12:49:50;101380.00;;;3.70
65569;BMP180;52211;50.154;8.682;2022-12-18T12:52:43;101376.00;;;3.60
65569;BMP180;52211;50.154;8.682;2022-12-18T12:55:21;101365.00;;;3.60
65569;BMP180;52211;50.154;8.682;2022-12-18T13:01:28;101369.00;;;3.40
65569;BMP180;52211;50.154;8.682;2022-12-18T13:04:33;101380.00;;;3.40
65569;BMP180;52211;50.154;8.682;2022-12-18T13:07:12;101372.00;;;3.30
65569;BMP180;52211;50.154;8.682;2022-12-18T13:18:24;101374.00;;;3.30
65569;BMP180;52211;50.154;8.682;2022-12-18T13:23:47;101347.00;;;3.40
65569;BMP180;52211;50.154;8.682;2022-12-18T13:28:59;101362.00;;;3.40
65569;BMP180;52211;50.154;8.682;2022-12-18T13:49:06;101351.00;;;3.40
65569;BMP180;52211;50.154;8.682;2022-12-18T13:51:53;101321.00;;;3.40
65569;BMP180;52211;50.154;8.682;2022-12-18T13:54:34;101334.00;;;3.40
65569;BMP180;52211;50.154;8.682;2022-12-18T13:57:12;101327.00;;;3.40
65569;BMP180;52211;50.154;8.682;2022-12-18T13:59:54;101328.00;;;3.50
65569;BMP180;52211;50.154;8.682;2022-12-18T14:02:25;101318.00;;;3.50
65569;BMP180;52211;50.154;8.682;2022-12-18T14:04:55;101319.00;;;3.50
65569;BMP180;52211;50.154;8.682;2022-12-18T14:07:29;101309.00;;;3.60
65569;BMP180;52211;50.154;8.682;2022-12-18T14:10:15;101315.00;;;3.60
65569;BMP180;52211;50.154;8.682;2022-12-18T14:13:08;101316.00;;;3.60
65569;BMP180;52211;50.154;8.682;2022-12-18T14:15:46;101317.00;;;3.60
65569;BMP180;52211;50.154;8.682;2022-12-18T14:20:48;101318.00;;;3.60
65569;BMP180;52211;50.154;8.682;2022-12-18T14:23:41;101323.00;;;3.60
65569;BMP180;52211;50.154;8.682;2022-12-18T14:26:29;101321.00;;;3.50
65569;BMP180;52211;50.154;8.682;2022-12-18T14:29:00;101322.00;;;3.60
65569;BMP180;52211;50.154;8.682;2022-12-18T14:31:31;101324.00;;;3.60
65569;BMP180;52211;50.154;8.682;2022-12-18T14:34:00;101323.00;;;3.60
65569;BMP180;52211;50.154;8.682;2022-12-18T14:36:30;101318.00;;;3.50
65569;BMP180;52211;50.154;8.682;2022-12-18T14:39:00;101317.00;;;3.50
65569;BMP180;52211;50.154;8.682;2022-12-18T14:41:27;101320.00;;;3.50
65569;BMP180;52211;50.154;8.682;2022-12-18T14:44:06;101311.00;;;3.50
65569;BMP180;52211;50.154;8.682;2022-12-18T14:46:43;101316.00;;;3.50
65569;BMP180;52211;50.154;8.682;2022-12-18T14:49:33;101325.00;;;3.50
65569;BMP180;52211;50.154;8.682;2022-12-18T14:52:06;101329.00;;;3.40
65569;BMP180;52211;50.154;8.682;2022-12-18T14:54:47;101314.00;;;3.40
65569;BMP180;52211;50.154;8.682;2022-12-18T14:57:30;101321.00;;;3.40
65569;BMP180;52211;50.154;8.682;2022-12-18T15:00:15;101312.00;;;3.40
65569;BMP180;52211;50.154;8.682;2022-12-18T15:02:48;101317.00;;;3.40
65569;BMP180;52211;50.154;8.682;2022-12-18T15:05:29;101313.00;;;3.40
65569;BMP180;52211;50.154;8.682;2022-12-18T15:07:59;101309.00;;;3.30
65569;BMP180;52211;50.154;8.682;2022-12-18T15:10:34;101302.00;;;3.30
65569;BMP180;52211;50.154;8.682;2022-12-18T15:20:57;101302.00;;;3.30
65569;BMP180;52211;50.154;8.682;2022-12-18T15:23:47;101294.00;;;3.20
65569;BMP180;52211;50.154;8.682;2022-12-18T15:26:18;101297.00;;;3.20
65569;BMP180;52211;50.154;8.682;2022-12-18T15:28:53;101306.00;;;3.20
65569;BMP180;52211;50.154;8.682;2022-12-18T15:31:40;101296.00;;;3.10
65569;BMP180;52211;50.154;8.682;2022-12-18T15:34:19;101297.00;;;3.10
65569;BMP180;52211;50.154;8.682;2022-12-18T15:36:51;101290.00;;;3.10
65569;BMP180;52211;50.154;8.682;2022-12-18T15:39:21;101287.00;;;3.10
65569;BMP180;52211;50.154;8.682;2022-12-18T15:41:48;101286.00;;;3.10
65569;BMP180;52211;50.154;8.682;2022-12-18T15:44:34;101284.00;;;3.00
65569;BMP180;52211;50.154;8.682;2022-12-18T15:47:04;101283.00;;;3.00
65569;BMP180;52211;50.154;8.682;2022-12-18T15:49:34;101288.00;;;3.00
65569;BMP180;52211;50.154;8.682;2022-12-18T15:52:03;101276.00;;;3.00
65569;BMP180;52211;50.154;8.682;2022-12-18T15:54:32;101280.00;;;3.00
65569;BMP180;52211;50.154;8.682;2022-12-18T15:57:18;101275.00;;;2.90
65569;BMP180;52211;50.154;8.682;2022-12-18T15:59:54;101283.00;;;2.90
65569;BMP180;52211;50.154;8.682;2022-12-18T16:02:26;101278.00;;;2.90
65569;BMP180;52211;50.154;8.682;2022-12-18T16:04:54;101278.00;;;2.90
65569;BMP180;52211;50.154;8.682;2022-12-18T16:07:22;101280.00;;;2.90
65569;BMP180;52211;50.154;8.682;2022-12-18T16:09:54;101278.00;;;2.90
65569;BMP180;52211;50.154;8.682;2022-12-18T16:12:26;101278.00;;;2.80
65569;BMP180;52211;50.154;8.682;2022-12-18T16:14:55;101273.00;;;2.80
65569;BMP180;52211;50.154;8.682;2022-12-18T16:17:25;101278.00;;;2.80
65569;BMP180;52211;50.154;8.682;2022-12-18T16:19:59;101268.00;;;2.80
65569;BMP180;52211;50.154;8.682;2022-12-18T16:22:32;101264.00;;;2.80
65569;BMP180;52211;50.154;8.682;2022-12-18T16:25:03;101266.00;;;2.80
65569;BMP180;52211;50.154;8.682;2022-12-18T16:27:31;101264.00;;;2.80
65569;BMP180;52211;50.154;8.682;2022-12-18T16:30:00;101253.00;;;2.70
65569;BMP180;52211;50.154;8.682;2022-12-18T16:32:30;101262.00;;;2.70
65569;BMP180;52211;50.154;8.682;2022-12-18T16:35:02;101254.00;;;2.70
65569;BMP180;52211;50.154;8.682;2022-12-18T16:37:31;101249.00;;;2.70
65569;BMP180;52211;50.154;8.682;2022-12-18T16:40:02;101242.00;;;2.70
65569;BMP180;52211;50.154;8.682;2022-12-18T16:42:36;101246.00;;;2.60